AirNav   Duncan Aviation - Near you to keep you flying
 
 1220 users online  

6TA4 Harris County ESD #80 Heliport
Crosby, Texas, USA

GOING TO CROSBY?


FAA INFORMATION EFFECTIVE 11 AUGUST 2022

Location

FAA Identifier: 6TA4
Lat/Long: 29-53-22.3200N 095-03-30.4300W
29-53.372000N 095-03.507167W
29.8895333,-95.0584528
(estimated)
Elevation: 48 ft. / 15 m
From city: 1 mile S of CROSBY, TX
Time zone: UTC -5 (UTC -6 during Standard Time)
Zip code: 77532

Heliport Operations

Heliport use: Private use. Permission required prior to landing
Activation date: 10/2015
Control tower: no
ARTCC: HOUSTON CENTER
FSS: MONTGOMERY COUNTY FLIGHT SERVICE STATION
Attendance: UNATNDD
Wind indicator: yes
Segmented circle: no
Lights: SS-SR

Heliport Communications

WX AWOS-3PT at T41 (13 nm S): 120.275 (281-471-2206)
WX ASOS at IAH (16 nm W): PHONE 281-443-6397
WX AWOS-3 at EFD (18 nm S): 135.575 (713-847-4430)
WX ASOS at HOU (19 nm SW): PHONE 713-847-1462

Nearby radio navigation aids

VOR radial/distance  VOR name  Freq  Var
IAHr100/15.5HUMBLE VORTAC116.6005E
MHFr315/26.2TRINITY VOR/DME113.6007E
DASr225/28.0DAISETTA VORTAC116.9005E
VUHr339/38.5SCHOLES VOR/DME113.0006E

Heliport Services

Runway Information

Helipad H1

Dimensions: 66 x 66 ft. / 20 x 20 m
Surface: concrete
Runway edge lights: PERI
Traffic pattern: leftleft

Heliport Ownership and Management from official FAA records

Ownership: Privately-owned
Owner: HARRIS COUNTY ESD #80
PO BOX 949
CROSBY, TX 77532
Manager: HARRIS COUNTY ESD #80
2502 HWY 90
CROSBY, TX 77532
Phone 832-233-6026

Additional Remarks

FOR CD CTC HOUSTON ARTCC AT 281-230-5622.

Instrument Procedures

There are no published instrument procedures at 6TA4.

Some nearby airports with instrument procedures:

KHPY - Baytown Airport (8 nm SE)
T41 - La Porte Municipal Airport (13 nm S)
54T - RWJ Airpark (13 nm SE)
KIAH - George Bush Intercontinental/Houston Airport (16 nm W)
KEFD - Ellington Airport (18 nm S)
KHOU - William P Hobby Airport (19 nm SW)
 
Loc | Ops | Rwys | IFR | FBO | Links
Com | Nav | Svcs | Stats | Notes
Aerial photo
No photo
 
Airport distance calculator
Flying to Harris County ESD #80 Heliport? Find the distance to fly.

From to 6TA4

Sunrise and sunset
Times for 16-Aug-2022
 Local
(UTC-5)
 Zulu
(UTC)
Morning civil twilight06:2411:24
Sunrise06:4911:49
Sunset20:0001:00
Evening civil twilight20:2501:25

Current date and time
Zulu (UTC)  17-Aug-2022 01:39:06
Local (UTC-5)  16-Aug-2022 20:39:06
 
METAR
KT41 
13nm S 
170115Z AUTO 19008KT 10SM CLR 30/17 A2991 RMK AO2 T02980166
KIAH 
17nm NW 
170053Z 17007KT 10SM FEW060 BKN250 32/23 A2989 RMK AO2 SLP120 T03170228
KEFD 
18nm S 
170054Z 16005KT 10SM CLR 30/22 A2989
KHOU 
19nm SW 
170053Z 16011KT 10SM SCT250 31/22 A2989 RMK AO2 SLP126 T03110217
KLVJ 
24nm SW 
170053Z AUTO 15005KT 10SM CLR 31/23 A2991 RMK AO2 SLP127 T03060228
TAF
KIAH 
17nm NW 
162100Z 1621/1724 21005KT P6SM SCT060 SCT250 FM162200 15009KT P6SM SCT050 SCT250 FM170600 VRB03KT P6SM SCT025 FM171500 24005KT P6SM FEW035 FM172100 17009KT P6SM SCT050
KEFD 
18nm S 
162035Z 1620/1802 13009KT 9999 FEW055 QNH2988INS TEMPO 1621/1700 8000 -TSRA BKN050CB BECMG 1708/1709 VRB06KT 8000 BR SCT011 QNH2993INS BECMG 1716/1717 VRB06KT 9999 NSW SCT050 QNH2987INS TX33/1621Z TN25/1712Z
KHOU 
19nm SW 
162130Z 1622/1718 16016KT P6SM VCTS FEW050CB SCT060 BKN250 FM162230 16010KT P6SM FEW050 SCT250 FM170500 VRB03KT P6SM FEW025 FM171500 25006KT P6SM FEW035 SCT250
NOTAMs
Click for the latest NOTAMs
NOTAMs are issued by the DoD/FAA and will open in a separate window not controlled by AirNav.

 

 
 

Would you like to see your business listed on this page?

 If your business provides an interesting product or service to pilots, flight crews, aircraft, or users of the Harris County ESD #80 Heliport, you should consider listing it here.  To start the listing process, click on the button below
 
Add a business
 

Other Pages about Harris County ESD #80 Heliport

Update a link
 
Copyright © AirNav, LLC. All rights reserved. Privacy Policy  Contact